Time;durP1;ratioP1;P1;durP2;ratioP2;P2;SDS_P1;SDS_P2;PMS_P1;PMS_P2;Temp;Humidity;BMP_temperature;BMP_pressure;BME280_temperature;BME280_humidity;BME280_pressure;Samples;Min_cycle;Max_cycle;Signal;HPM_P1;HPM_P2
2023/09/25 00:01:04;;;;;;;4.72;4.25;;;10.30;99.90;;;;;;4977589;28;20170;-59
2023/09/25 00:03:30;;;;;;;4.53;3.83;;;10.30;99.90;;;;;;4977276;28;20181;-59
2023/09/25 00:05:56;;;;;;;5.80;3.80;;;10.20;99.90;;;;;;4977542;28;20177;-59
2023/09/25 00:08:21;;;;;;;7.53;4.20;;;10.20;99.90;;;;;;4977320;28;20205;-59
2023/09/25 00:10:47;;;;;;;4.72;3.67;;;10.20;99.90;;;;;;4975762;28;20188;-60
2023/09/25 00:13:13;;;;;;;4.30;3.90;;;10.20;99.90;;;;;;4976862;28;20216;-59
2023/09/25 00:15:44;;;;;;;4.30;3.90;;;10.20;99.90;;;;;;4977576;28;20205;-59
2023/09/25 00:18:10;;;;;;;4.07;3.72;;;10.20;99.90;;;;;;4976868;28;20193;-60
2023/09/25 00:20:36;;;;;;;4.32;3.53;;;10.20;99.90;;;;;;4976877;28;20173;-60
2023/09/25 00:23:02;;;;;;;6.10;3.85;;;10.30;99.90;;;;;;4976668;28;20260;-59
2023/09/25 00:25:28;;;;;;;4.30;3.83;;;10.30;99.90;;;;;;4976641;28;20279;-59
2023/09/25 00:27:54;;;;;;;3.72;3.47;;;10.30;99.90;;;;;;4976525;28;20174;-59
2023/09/25 00:30:20;;;;;;;4.65;4.03;;;10.40;99.90;;;;;;4976740;28;20184;-59
2023/09/25 00:32:46;;;;;;;5.40;4.00;;;10.30;99.90;;;;;;4975390;28;20300;-59
2023/09/25 00:35:12;;;;;;;4.35;3.60;;;10.30;99.90;;;;;;4976679;28;20179;-59
2023/09/25 00:37:38;;;;;;;4.95;3.88;;;10.40;99.90;;;;;;4976292;28;20177;-59
2023/09/25 00:40:13;;;;;;;5.13;3.70;;;10.40;99.90;;;;;;4976489;28;20216;-59
2023/09/25 00:42:45;;;;;;;4.22;3.75;;;10.40;99.90;;;;;;4975317;28;20192;-59
2023/09/25 00:45:11;;;;;;;6.18;3.95;;;10.30;99.90;;;;;;4976523;28;20161;-59
2023/09/25 00:47:39;;;;;;;4.25;3.80;;;10.30;99.90;;;;;;4976352;28;20255;-59
2023/09/25 00:50:06;;;;;;;6.63;4.07;;;10.40;99.90;;;;;;4976350;28;20252;-59
2023/09/25 00:52:33;;;;;;;5.70;3.88;;;10.40;99.90;;;;;;4976144;28;20204;-59
2023/09/25 00:55:04;;;;;;;4.20;3.78;;;10.30;99.90;;;;;;4976074;28;20663;-58
2023/09/25 00:57:30;;;;;;;4.55;4.15;;;10.30;99.90;;;;;;4976242;28;20618;-61
2023/09/25 00:59:56;;;;;;;4.65;4.00;;;10.30;99.90;;;;;;4974766;28;20675;-59
2023/09/25 01:02:22;;;;;;;5.47;3.45;;;10.30;99.90;;;;;;4976354;28;20257;-59
2023/09/25 01:04:49;;;;;;;5.55;3.80;;;10.40;99.90;;;;;;4976013;28;20680;-59
2023/09/25 01:07:18;;;;;;;4.20;3.80;;;10.40;99.90;;;;;;4976956;28;20180;-59
2023/09/25 01:10:23;;;;;;;4.18;3.70;;;10.40;99.90;;;;;;4974685;28;20209;-59
2023/09/25 01:12:52;;;;;;;5.85;3.78;;;10.50;99.90;;;;;;4975631;28;20217;-59
2023/09/25 01:15:17;;;;;;;3.70;3.40;;;10.60;99.90;;;;;;4975837;28;20581;-59
2023/09/25 01:17:43;;;;;;;4.05;3.65;;;10.50;99.90;;;;;;4974525;28;20269;-59
2023/09/25 01:20:17;;;;;;;4.13;3.72;;;10.60;99.90;;;;;;4975761;28;20200;-59
2023/09/25 01:22:51;;;;;;;4.30;3.90;;;10.60;99.90;;;;;;4975672;28;20668;-59
2023/09/25 01:25:18;;;;;;;3.80;3.40;;;10.70;99.90;;;;;;4975989;28;20192;-59
2023/09/25 01:27:46;;;;;;;4.72;3.50;;;10.70;99.90;;;;;;4974376;28;20562;-59
2023/09/25 01:30:13;;;;;;;3.72;3.42;;;10.70;99.90;;;;;;4975506;28;20562;-59
2023/09/25 01:32:42;;;;;;;4.53;3.47;;;10.70;99.90;;;;;;4975770;28;20326;-60
2023/09/25 01:35:18;;;;;;;4.60;3.38;;;10.70;99.90;;;;;;4975830;28;20521;-59
2023/09/25 01:37:44;;;;;;;3.55;3.28;;;10.70;99.90;;;;;;4975711;28;20681;-59
2023/09/25 01:40:17;;;;;;;3.83;3.40;;;10.60;99.90;;;;;;4974767;28;20566;-59
2023/09/25 01:42:47;;;;;;;3.60;3.30;;;10.70;99.90;;;;;;4975683;28;20164;-59
2023/09/25 01:45:16;;;;;;;5.18;3.60;;;10.70;99.90;;;;;;4975605;28;20545;-59
2023/09/25 01:47:48;;;;;;;5.05;3.42;;;10.70;99.90;;;;;;4973988;28;20188;-59
2023/09/25 01:50:15;;;;;;;3.65;3.35;;;10.70;99.90;;;;;;4975190;28;20201;-60
2023/09/25 01:52:41;;;;;;;3.60;3.20;;;10.70;99.90;;;;;;4975087;28;20546;-60
2023/09/25 01:55:07;;;;;;;3.90;3.33;;;10.70;99.90;;;;;;4974906;28;20220;-59
2023/09/25 01:57:34;;;;;;;3.47;3.17;;;10.70;99.90;;;;;;4975079;28;20173;-59
2023/09/25 02:00:00;;;;;;;3.35;3.05;;;10.80;99.90;;;;;;4975120;28;20185;-59
2023/09/25 02:02:25;;;;;;;3.35;3.05;;;10.90;99.90;;;;;;4975388;28;20232;-60
2023/09/25 02:04:51;;;;;;;3.78;3.47;;;10.90;99.90;;;;;;4975108;28;20224;-59
2023/09/25 02:07:18;;;;;;;4.50;2.83;;;11.00;99.90;;;;;;4975015;28;20285;-59
2023/09/25 02:09:45;;;;;;;4.15;3.28;;;11.10;99.90;;;;;;4974648;28;20205;-59
2023/09/25 02:12:11;;;;;;;6.32;3.75;;;11.00;99.90;;;;;;4974864;28;20284;-61
2023/09/25 02:14:37;;;;;;;3.50;3.20;;;11.10;99.90;;;;;;4973633;28;20276;-59
2023/09/25 02:17:03;;;;;;;4.88;3.00;;;11.00;99.90;;;;;;4974955;28;20188;-59
2023/09/25 02:19:28;;;;;;;5.40;3.40;;;11.00;99.90;;;;;;4975331;28;20193;-59
2023/09/25 02:21:54;;;;;;;3.58;3.28;;;10.90;99.90;;;;;;4974717;28;20181;-59
2023/09/25 02:24:21;;;;;;;3.75;3.10;;;10.90;99.90;;;;;;4974429;28;20189;-60
2023/09/25 02:26:47;;;;;;;3.25;3.00;;;10.90;99.90;;;;;;4975350;28;20234;-59
2023/09/25 02:29:13;;;;;;;3.45;3.13;;;10.80;99.90;;;;;;4974826;28;20692;-59
2023/09/25 02:31:39;;;;;;;3.20;2.90;;;10.80;99.90;;;;;;4974680;28;20184;-59
2023/09/25 02:34:06;;;;;;;3.20;3.00;;;10.80;99.90;;;;;;4974681;28;20540;-59
2023/09/25 02:36:33;;;;;;;3.58;3.35;;;10.70;99.90;;;;;;4974697;28;20176;-59
2023/09/25 02:38:59;;;;;;;3.40;3.10;;;10.70;99.90;;;;;;4973288;28;20728;-60
2023/09/25 02:41:25;;;;;;;3.25;2.95;;;10.70;99.90;;;;;;4974605;28;20165;-60
2023/09/25 02:43:51;;;;;;;3.95;3.53;;;10.60;99.90;;;;;;4975257;28;20173;-60
2023/09/25 02:46:17;;;;;;;3.50;3.20;;;10.60;99.90;;;;;;4974548;28;20174;-58
2023/09/25 02:48:42;;;;;;;3.67;3.30;;;10.70;99.90;;;;;;4974628;28;20193;-59
2023/09/25 02:51:08;;;;;;;3.10;2.90;;;10.70;99.90;;;;;;4973618;28;20530;-59
2023/09/25 02:53:34;;;;;;;4.03;3.35;;;10.70;99.90;;;;;;4977023;28;20216;-60
2023/09/25 02:55:59;;;;;;;3.70;3.40;;;10.70;99.90;;;;;;4978766;28;20192;-59
2023/09/25 02:58:25;;;;;;;3.72;3.40;;;10.80;99.90;;;;;;4978337;28;20197;-60
2023/09/25 03:00:51;;;;;;;3.50;3.30;;;10.70;99.90;;;;;;4978441;28;20177;-59
2023/09/25 03:03:17;;;;;;;4.32;3.60;;;10.70;99.90;;;;;;4978607;28;20273;-60
2023/09/25 03:05:43;;;;;;;4.45;3.70;;;10.70;99.90;;;;;;4978366;28;20657;-60
2023/09/25 03:08:08;;;;;;;4.55;3.30;;;10.70;99.90;;;;;;4978049;28;20192;-61
2023/09/25 03:10:34;;;;;;;5.00;3.88;;;10.70;99.90;;;;;;4979430;28;20300;-61
2023/09/25 03:13:00;;;;;;;4.18;3.42;;;10.60;99.90;;;;;;4977412;28;20216;-61
2023/09/25 03:15:26;;;;;;;7.45;4.10;;;10.50;99.90;;;;;;4976950;28;20189;-61
2023/09/25 03:17:51;;;;;;;3.72;3.40;;;10.50;99.90;;;;;;4978740;28;20188;-61
2023/09/25 03:20:17;;;;;;;3.53;3.22;;;10.50;99.90;;;;;;4978226;28;20173;-61
2023/09/25 03:22:44;;;;;;;5.25;3.72;;;10.60;99.90;;;;;;4978164;28;20189;-61
2023/09/25 03:25:11;;;;;;;3.67;3.38;;;10.50;99.90;;;;;;4977664;28;20294;-61
2023/09/25 03:27:37;;;;;;;5.80;3.88;;;10.50;99.90;;;;;;4977941;28;20659;-62
2023/09/25 03:30:05;;;;;;;4.10;3.70;;;10.40;99.90;;;;;;4977716;28;20197;-62
2023/09/25 03:32:31;;;;;;;3.92;3.53;;;10.40;99.90;;;;;;4977945;28;20197;-61
2023/09/25 03:34:57;;;;;;;5.15;3.33;;;10.40;99.90;;;;;;4977946;28;20587;-62
2023/09/25 03:37:23;;;;;;;3.35;3.05;;;10.40;99.90;;;;;;4977987;28;20252;-60
2023/09/25 03:39:48;;;;;;;3.90;3.60;;;10.50;99.90;;;;;;4977381;28;20193;-60
2023/09/25 03:42:14;;;;;;;3.80;3.50;;;10.40;99.90;;;;;;4977769;28;20524;-61
2023/09/25 03:44:40;;;;;;;4.32;3.22;;;10.40;99.90;;;;;;4977579;28;20672;-60
2023/09/25 03:47:06;;;;;;;4.50;3.80;;;10.40;99.90;;;;;;4992552;28;20224;-61
2023/09/25 03:49:31;;;;;;;3.60;3.30;;;10.40;99.90;;;;;;4977723;28;20565;-61
2023/09/25 03:51:57;;;;;;;4.07;3.58;;;10.40;99.90;;;;;;4977388;28;20700;-60
2023/09/25 03:54:23;;;;;;;3.80;3.50;;;10.40;99.90;;;;;;4975893;28;20173;-61
2023/09/25 03:56:48;;;;;;;3.83;3.47;;;10.50;99.90;;;;;;4976126;28;20208;-62
2023/09/25 03:59:14;;;;;;;3.88;3.50;;;10.60;99.90;;;;;;4977508;28;20244;-60
2023/09/25 04:01:40;;;;;;;3.92;3.40;;;10.60;99.90;;;;;;4977256;28;20219;-61
2023/09/25 04:04:07;;;;;;;3.90;3.15;;;10.60;99.90;;;;;;4976688;28;20260;-61
2023/09/25 04:06:33;;;;;;;5.57;3.30;;;10.50;99.90;;;;;;4977195;28;20185;-61
2023/09/25 04:08:59;;;;;;;3.25;3.05;;;10.50;99.90;;;;;;4976862;28;20203;-60
2023/09/25 04:11:25;;;;;;;4.00;3.30;;;10.40;99.90;;;;;;4977122;28;20177;-60
2023/09/25 04:13:51;;;;;;;5.03;3.45;;;10.40;99.90;;;;;;4976995;28;20224;-61
2023/09/25 04:16:17;;;;;;;3.67;3.40;;;10.40;99.90;;;;;;4977015;28;20173;-60
2023/09/25 04:18:43;;;;;;;5.00;3.95;;;10.40;99.90;;;;;;4976989;28;20296;-61
2023/09/25 04:21:14;;;;;;;4.13;3.58;;;10.40;99.90;;;;;;4977113;28;20267;-61
2023/09/25 04:23:41;;;;;;;4.93;3.95;;;10.30;99.90;;;;;;4976998;28;20162;-60
2023/09/25 04:26:06;;;;;;;4.65;3.72;;;10.30;99.90;;;;;;4976762;28;20189;-60
2023/09/25 04:28:33;;;;;;;4.28;3.88;;;10.30;99.90;;;;;;4976783;28;20284;-60
2023/09/25 04:31:02;;;;;;;3.72;3.42;;;10.30;99.90;;;;;;4976703;28;20208;-61
2023/09/25 04:33:28;;;;;;;3.90;3.50;;;10.30;99.90;;;;;;4976922;28;20201;-61
2023/09/25 04:36:01;;;;;;;3.83;3.53;;;10.30;99.90;;;;;;4976688;28;20657;-60
2023/09/25 04:38:27;;;;;;;4.30;3.90;;;10.30;99.90;;;;;;4976928;28;20248;-62
2023/09/25 04:40:54;;;;;;;4.00;3.70;;;10.20;99.90;;;;;;4976607;28;20177;-60
2023/09/25 04:43:21;;;;;;;4.07;3.70;;;10.20;99.90;;;;;;4977367;28;20200;-62
2023/09/25 04:45:51;;;;;;;4.00;3.70;;;10.10;99.90;;;;;;4976358;28;20308;-61
2023/09/25 04:48:18;;;;;;;4.00;3.60;;;10.10;99.90;;;;;;4976598;28;20197;-62
2023/09/25 04:50:44;;;;;;;4.03;3.73;;;10.10;99.90;;;;;;4976265;28;20548;-61
2023/09/25 04:53:10;;;;;;;4.18;3.83;;;10.00;99.90;;;;;;4976235;28;20677;-61
2023/09/25 04:55:38;;;;;;;3.90;3.50;;;9.90;99.90;;;;;;4976122;28;20173;-62
2023/09/25 04:58:04;;;;;;;5.47;3.72;;;9.80;99.90;;;;;;4976125;28;20548;-61
2023/09/25 05:00:32;;;;;;;4.03;3.63;;;9.70;99.90;;;;;;4975242;28;20185;-59
2023/09/25 05:02:58;;;;;;;5.37;3.90;;;9.60;99.90;;;;;;4976106;28;20181;-61
2023/09/25 05:05:25;;;;;;;5.17;3.50;;;9.60;99.90;;;;;;4976101;28;20229;-58
2023/09/25 05:07:53;;;;;;;5.10;4.60;;;9.60;99.90;;;;;;4976101;28;20211;-58
2023/09/25 05:10:25;;;;;;;4.28;3.88;;;9.60;99.90;;;;;;4975852;28;20183;-58
2023/09/25 05:12:52;;;;;;;5.53;3.90;;;9.60;99.90;;;;;;4975799;28;20570;-58
2023/09/25 05:15:18;;;;;;;6.03;4.10;;;9.60;99.90;;;;;;4975037;28;20260;-60
2023/09/25 05:17:45;;;;;;;4.83;4.33;;;9.70;99.90;;;;;;4975866;28;20177;-59
2023/09/25 05:20:18;;;;;;;10.38;4.88;;;9.60;99.90;;;;;;4975737;28;20567;-61
2023/09/25 05:22:55;;;;;;;4.23;3.87;;;9.60;99.90;;;;;;4974524;28;20193;-59
2023/09/25 05:25:22;;;;;;;7.37;4.30;;;9.60;99.90;;;;;;4975404;28;20223;-59
2023/09/25 05:27:50;;;;;;;5.63;4.13;;;9.50;99.90;;;;;;4974423;28;20189;-59
2023/09/25 05:30:17;;;;;;;5.90;3.70;;;9.60;99.90;;;;;;4975514;28;20291;-60
2023/09/25 05:32:49;;;;;;;4.27;3.87;;;9.60;99.90;;;;;;4975729;28;20212;-59
2023/09/25 05:35:15;;;;;;;5.00;4.50;;;9.50;99.90;;;;;;4975801;28;20166;-59
2023/09/25 05:37:43;;;;;;;4.80;4.30;;;9.60;99.90;;;;;;4975772;28;20272;-59
2023/09/25 05:40:12;;;;;;;4.77;3.93;;;9.60;99.90;;;;;;4975150;28;20203;-60
2023/09/25 05:42:46;;;;;;;5.77;4.33;;;9.60;99.90;;;;;;4975412;28;20185;-59
2023/09/25 05:45:14;;;;;;;6.47;5.00;;;9.60;99.90;;;;;;4974373;28;20554;-58
2023/09/25 05:47:40;;;;;;;6.63;4.67;;;9.50;99.90;;;;;;4975376;28;20189;-60
2023/09/25 05:50:07;;;;;;;5.10;4.60;;;9.60;99.90;;;;;;4975250;28;20619;-59
2023/09/25 05:52:34;;;;;;;6.90;5.00;;;9.60;99.90;;;;;;4975197;28;20325;-59
2023/09/25 05:55:00;;;;;;;5.80;4.30;;;9.50;99.90;;;;;;4975101;28;20177;-59
2023/09/25 05:57:26;;;;;;;8.67;4.93;;;9.60;99.90;;;;;;4975149;28;20546;-60
2023/09/25 05:59:52;;;;;;;6.50;4.47;;;9.60;99.90;;;;;;4975084;28;20283;-58
2023/09/25 06:02:18;;;;;;;4.70;4.17;;;9.60;99.90;;;;;;4975088;28;20177;-58
2023/09/25 06:04:44;;;;;;;7.47;4.63;;;9.60;99.90;;;;;;4973820;28;20235;-58
2023/09/25 06:07:11;;;;;;;5.40;4.00;;;9.70;99.90;;;;;;4975097;28;20173;-59
2023/09/25 06:09:37;;;;;;;5.37;4.60;;;9.70;99.90;;;;;;4974914;28;20219;-59
2023/09/25 06:12:04;;;;;;;5.50;4.30;;;9.80;99.90;;;;;;4975143;28;20665;-58
2023/09/25 06:14:29;;;;;;;6.33;4.53;;;9.80;99.90;;;;;;4975410;28;20174;-59
2023/09/25 06:16:57;;;;;;;4.63;3.87;;;9.90;99.90;;;;;;4975092;28;20177;-61
2023/09/25 06:19:24;;;;;;;4.13;3.73;;;10.00;99.90;;;;;;4974758;28;20197;-59
2023/09/25 06:21:50;;;;;;;4.17;3.77;;;10.10;99.90;;;;;;4974793;28;20207;-59
2023/09/25 06:24:16;;;;;;;4.10;3.73;;;10.10;99.90;;;;;;4974411;28;20711;-59
2023/09/25 06:26:46;;;;;;;4.43;4.00;;;10.30;99.90;;;;;;4974905;28;20335;-58
2023/09/25 06:29:12;;;;;;;6.43;3.70;;;10.40;99.90;;;;;;4973655;28;20619;-60
2023/09/25 06:31:39;;;;;;;4.85;3.65;;;10.50;99.90;;;;;;4974678;28;20557;-59
2023/09/25 06:34:07;;;;;;;3.57;3.20;;;10.50;99.90;;;;;;4974720;28;20183;-59
2023/09/25 06:36:36;;;;;;;3.92;3.63;;;10.60;99.90;;;;;;4974704;28;20200;-58
2023/09/25 06:39:08;;;;;;;4.77;3.50;;;10.80;99.90;;;;;;4974407;28;20725;-61
2023/09/25 06:41:36;;;;;;;4.50;3.42;;;10.90;99.90;;;;;;4974617;28;20157;-58
2023/09/25 06:44:04;;;;;;;4.38;3.92;;;11.00;99.90;;;;;;4974660;28;20204;-59
2023/09/25 06:46:31;;;;;;;6.90;5.25;;;11.10;99.90;;;;;;4974596;28;20173;-59
2023/09/25 06:48:56;;;;;;;7.75;3.90;;;11.30;99.90;;;;;;4974471;28;20280;-59
2023/09/25 06:51:22;;;;;;;5.43;3.90;;;11.40;99.90;;;;;;4974613;28;20288;-58
2023/09/25 06:53:48;;;;;;;4.43;4.03;;;11.50;99.90;;;;;;4974354;28;20205;-65
2023/09/25 06:56:14;;;;;;;5.22;4.30;;;11.60;99.90;;;;;;4974796;28;20177;-59
2023/09/25 06:58:40;;;;;;;4.57;4.13;;;11.70;99.90;;;;;;4974378;28;20193;-60
2023/09/25 07:01:06;;;;;;;8.25;4.30;;;11.70;99.90;;;;;;4974415;28;20648;-60
2023/09/25 07:03:31;;;;;;;4.80;4.03;;;11.80;99.90;;;;;;4974460;28;20236;-58
2023/09/25 07:05:57;;;;;;;6.28;4.13;;;11.90;99.90;;;;;;4974399;28;20177;-60
2023/09/25 07:08:25;;;;;;;5.15;4.07;;;12.00;99.90;;;;;;4974305;28;20200;-58
2023/09/25 07:10:51;;;;;;;6.43;4.07;;;12.10;99.90;;;;;;4974198;28;20652;-59
2023/09/25 07:13:17;;;;;;;6.63;4.32;;;12.20;99.90;;;;;;4974282;28;20201;-59
2023/09/25 07:15:43;;;;;;;7.95;5.60;;;12.30;99.90;;;;;;4974406;28;20223;-60
2023/09/25 07:18:10;;;;;;;5.30;4.10;;;12.40;99.90;;;;;;4974171;28;20176;-59
2023/09/25 07:20:36;;;;;;;6.43;4.40;;;12.50;99.90;;;;;;4974405;28;20174;-58
2023/09/25 07:23:02;;;;;;;4.95;4.10;;;12.60;99.90;;;;;;4974263;28;20209;-59
2023/09/25 07:25:28;;;;;;;4.35;3.88;;;12.70;99.90;;;;;;4974013;28;20201;-58
2023/09/25 07:27:54;;;;;;;6.18;3.75;;;12.80;99.90;;;;;;4974176;28;20237;-61
2023/09/25 07:30:20;;;;;;;4.35;3.70;;;13.00;99.90;;;;;;4974209;28;20180;-61
2023/09/25 07:32:46;;;;;;;3.80;3.33;;;13.10;99.90;;;;;;4974106;28;20205;-60
2023/09/25 07:35:15;;;;;;;4.28;3.50;;;13.30;99.90;;;;;;4974141;28;20181;-58
2023/09/25 07:37:41;;;;;;;12.55;4.50;;;13.40;99.90;;;;;;4989063;28;20174;-60
2023/09/25 07:40:11;;;;;;;5.45;3.80;;;13.60;99.90;;;;;;4976993;28;20193;-60
2023/09/25 07:42:38;;;;;;;6.80;3.83;;;13.80;99.90;;;;;;4977916;28;20515;-59
2023/09/25 07:45:11;;;;;;;4.85;3.53;;;14.00;99.90;;;;;;4977587;28;20204;-58
2023/09/25 07:47:41;;;;;;;3.78;3.40;;;14.20;99.90;;;;;;4977751;28;20157;-61
2023/09/25 07:50:10;;;;;;;3.78;3.33;;;14.40;99.90;;;;;;4977368;28;20213;-59
2023/09/25 07:52:40;;;;;;;3.88;3.38;;;14.60;99.90;;;;;;4975981;28;20216;-59
2023/09/25 07:55:08;;;;;;;6.88;3.50;;;14.80;99.90;;;;;;4977106;28;20170;-59
2023/09/25 07:57:39;;;;;;;5.15;3.60;;;15.00;99.90;;;;;;4977339;28;20642;-60
2023/09/25 08:00:15;;;;;;;3.83;3.40;;;15.20;99.90;;;;;;4977630;28;20224;-60
2023/09/25 08:02:47;;;;;;;3.50;3.03;;;15.30;99.90;;;;;;4977296;28;20157;-59
2023/09/25 08:05:18;;;;;;;7.55;3.67;;;15.40;99.90;;;;;;4976068;28;20181;-61
2023/09/25 08:07:48;;;;;;;2.83;2.63;;;15.70;99.90;;;;;;4977523;28;20618;-60
2023/09/25 08:10:14;;;;;;;3.60;3.13;;;15.90;99.90;;;;;;4977284;28;20652;-60
2023/09/25 08:12:40;;;;;;;7.78;3.72;;;16.00;99.90;;;;;;4977311;28;20208;-60
2023/09/25 08:15:07;;;;;;;5.22;3.20;;;16.40;99.90;;;;;;4977416;28;20197;-59
2023/09/25 08:17:33;;;;;;;4.70;2.78;;;16.50;99.90;;;;;;4977038;28;20669;-61
2023/09/25 08:20:00;;;;;;;5.13;3.22;;;16.80;99.90;;;;;;4977007;28;20193;-60
2023/09/25 08:22:26;;;;;;;5.88;2.95;;;17.00;99.90;;;;;;4976956;28;20240;-59
2023/09/25 08:24:52;;;;;;;4.20;3.10;;;17.10;99.90;;;;;;4975347;28;20196;-61
2023/09/25 08:27:19;;;;;;;2.90;2.60;;;17.30;99.90;;;;;;4977517;28;20272;-61
2023/09/25 08:29:45;;;;;;;5.93;2.88;;;17.50;99.90;;;;;;4977336;28;20221;-60
2023/09/25 08:32:11;;;;;;;3.13;2.88;;;17.50;99.90;;;;;;4977731;28;20208;-58
2023/09/25 08:34:37;;;;;;;3.72;2.88;;;17.60;99.90;;;;;;4977133;28;20173;-59
2023/09/25 08:37:04;;;;;;;5.50;2.90;;;17.60;99.90;;;;;;4977157;28;20185;-63
2023/09/25 08:39:29;;;;;;;3.85;2.70;;;17.70;99.90;;;;;;4976368;28;20189;-63
2023/09/25 08:41:57;;;;;;;3.38;2.90;;;17.80;99.90;;;;;;4976563;28;20538;-64
2023/09/25 08:44:23;;;;;;;4.13;2.90;;;17.90;99.90;;;;;;4976626;28;20712;-63
2023/09/25 08:46:49;;;;;;;2.42;2.22;;;18.00;99.90;;;;;;4976488;28;20192;-63
2023/09/25 08:49:15;;;;;;;5.85;2.60;;;18.00;99.90;;;;;;4975071;28;20287;-62
2023/09/25 08:51:41;;;;;;;3.08;2.53;;;18.00;99.90;;;;;;4976630;28;20193;-62
2023/09/25 08:54:08;;;;;;;5.90;2.53;;;18.20;99.90;;;;;;4976412;28;20182;-63
2023/09/25 08:56:34;;;;;;;3.20;2.60;;;18.30;99.90;;;;;;4976113;28;20177;-62
2023/09/25 08:59:02;;;;;;;4.20;2.40;;;18.30;99.90;;;;;;4976222;28;20248;-63
2023/09/25 09:01:29;;;;;;;3.67;2.50;;;18.40;99.90;;;;;;4974923;28;20173;-61
2023/09/25 09:03:55;;;;;;;3.00;2.70;;;18.50;99.90;;;;;;4976136;28;20177;-62
2023/09/25 09:06:20;;;;;;;3.08;2.72;;;18.50;99.90;;;;;;4976180;28;20524;-62
2023/09/25 09:08:48;;;;;;;4.25;2.80;;;18.50;99.90;;;;;;4974719;28;20305;-61
2023/09/25 09:11:15;;;;;;;4.50;2.78;;;18.60;99.90;;;;;;4975760;28;20173;-61
2023/09/25 09:13:47;;;;;;;3.90;2.35;;;18.70;99.90;;;;;;4976441;28;20193;-61
2023/09/25 09:16:15;;;;;;;4.43;2.60;;;18.70;99.90;;;;;;4976167;28;20523;-62
2023/09/25 09:18:41;;;;;;;3.03;2.55;;;18.70;99.90;;;;;;4974473;28;20560;-61
2023/09/25 09:21:29;;;;;;;3.38;2.65;;;18.80;99.90;;;;;;4974498;28;20593;-61
2023/09/25 09:23:57;;;;;;;3.28;2.45;;;18.80;99.90;;;;;;4976074;28;20626;-61
2023/09/25 09:26:23;;;;;;;3.67;2.60;;;18.90;99.90;;;;;;4975330;28;20197;-62
2023/09/25 09:28:49;;;;;;;2.65;2.40;;;19.00;99.90;;;;;;4975667;28;20200;-61
2023/09/25 09:31:17;;;;;;;2.50;2.22;;;19.00;99.90;;;;;;4975741;28;20264;-61
2023/09/25 09:33:43;;;;;;;2.70;2.25;;;18.90;99.90;;;;;;4975455;28;20207;-60
2023/09/25 09:36:13;;;;;;;2.63;2.30;;;18.80;99.90;;;;;;4974201;28;20551;-61
2023/09/25 09:38:41;;;;;;;3.40;2.40;;;18.80;99.90;;;;;;4975469;28;20205;-61
2023/09/25 09:41:07;;;;;;;4.22;2.50;;;18.70;99.90;;;;;;4973893;28;20191;-61
2023/09/25 09:43:34;;;;;;;2.85;2.22;;;18.70;99.90;;;;;;4975350;28;20672;-61
2023/09/25 09:46:00;;;;;;;2.45;2.25;;;18.80;99.90;;;;;;4975572;28;20224;-61
2023/09/25 09:48:29;;;;;;;2.70;2.28;;;18.90;99.90;;;;;;4975238;28;20236;-61
2023/09/25 09:51:00;;;;;;;2.65;2.10;;;18.90;99.90;;;;;;4975265;28;20235;-62
2023/09/25 09:53:29;;;;;;;2.40;2.20;;;19.00;99.90;;;;;;4973928;28;20695;-61
2023/09/25 09:55:58;;;;;;;3.40;2.17;;;19.00;99.90;;;;;;4975061;28;20177;-61
2023/09/25 09:58:25;;;;;;;3.85;2.20;;;19.10;99.90;;;;;;4973771;28;20205;-61
2023/09/25 10:00:54;;;;;;;2.38;2.17;;;19.10;99.90;;;;;;4974668;28;20184;-62
2023/09/25 10:03:20;;;;;;;2.97;2.10;;;19.20;99.90;;;;;;4975305;28;20256;-62
2023/09/25 10:05:50;;;;;;;3.30;2.03;;;19.20;99.90;;;;;;4975017;28;20537;-63
2023/09/25 10:08:16;;;;;;;2.28;2.08;;;19.20;99.90;;;;;;4974931;28;20200;-62
2023/09/25 10:10:48;;;;;;;2.30;2.00;;;19.20;99.90;;;;;;4973290;28;20180;-63
2023/09/25 10:13:21;;;;;;;5.50;2.63;;;19.30;99.90;;;;;;4975054;28;20197;-62
2023/09/25 10:16:01;;;;;;;3.72;2.35;;;19.30;99.90;;;;;;4975045;28;20242;-62
2023/09/25 10:18:28;;;;;;;2.53;1.95;;;19.40;99.90;;;;;;4974820;28;20193;-62
2023/09/25 10:21:08;;;;;;;3.58;2.30;;;19.50;99.90;;;;;;4974987;28;20169;-61
2023/09/25 10:23:34;;;;;;;3.10;2.20;;;19.50;99.90;;;;;;4973469;28;20758;-62
2023/09/25 10:26:02;;;;;;;3.38;2.13;;;19.60;99.90;;;;;;4974347;28;20217;-62
2023/09/25 10:28:31;;;;;;;3.42;2.03;;;19.60;99.90;;;;;;4974543;28;20193;-61
2023/09/25 10:31:01;;;;;;;6.25;2.00;;;19.70;99.90;;;;;;4973367;28;20675;-62
2023/09/25 10:33:37;;;;;;;2.33;1.92;;;19.70;99.90;;;;;;4974878;28;20240;-61
2023/09/25 10:36:05;;;;;;;2.35;2.00;;;19.80;99.90;;;;;;4975194;28;20165;-62
2023/09/25 10:38:36;;;;;;;2.90;1.98;;;19.90;99.90;;;;;;4975111;28;20197;-61
2023/09/25 10:41:08;;;;;;;3.08;2.28;;;20.00;99.90;;;;;;4974372;28;20157;-62
2023/09/25 10:43:35;;;;;;;2.28;2.08;;;20.00;99.90;;;;;;4974600;28;20527;-62
2023/09/25 10:46:02;;;;;;;3.90;2.10;;;20.00;99.90;;;;;;4974813;28;20584;-62
2023/09/25 10:48:28;;;;;;;2.67;2.20;;;20.20;99.90;;;;;;4974422;28;20204;-62
2023/09/25 10:50:55;;;;;;;3.58;2.25;;;20.30;99.90;;;;;;4974705;28;20644;-61
2023/09/25 10:53:25;;;;;;;2.20;1.80;;;20.40;99.90;;;;;;4974413;28;20288;-61
2023/09/25 10:55:51;;;;;;;3.47;2.35;;;20.50;99.90;;;;;;4974365;28;20158;-61
2023/09/25 10:58:18;;;;;;;3.72;1.80;;;20.60;99.90;;;;;;4974411;28;20197;-62
2023/09/25 11:00:46;;;;;;;2.40;1.92;;;20.70;99.90;;;;;;4974400;28;20519;-61
2023/09/25 11:03:12;;;;;;;2.33;1.95;;;20.80;99.90;;;;;;4974345;28;20183;-61
2023/09/25 11:05:38;;;;;;;4.25;2.10;;;20.90;99.90;;;;;;4974544;28;20187;-62
2023/09/25 11:08:15;;;;;;;2.90;2.03;;;20.90;99.90;;;;;;4974225;28;20646;-61
2023/09/25 11:10:41;;;;;;;2.72;2.03;;;20.90;99.90;;;;;;4974080;28;20244;-62
2023/09/25 11:13:08;;;;;;;3.10;1.98;;;21.00;99.90;;;;;;4974439;28;20208;-62
2023/09/25 11:15:38;;;;;;;2.70;2.10;;;21.10;99.90;;;;;;4992976;28;20661;-62
2023/09/25 11:18:08;;;;;;;2.78;2.10;;;21.20;99.90;;;;;;4977953;28;20181;-62
2023/09/25 11:20:34;;;;;;;2.80;2.10;;;21.20;99.90;;;;;;4977955;28;20173;-61
2023/09/25 11:23:10;;;;;;;2.55;1.90;;;21.30;99.90;;;;;;4977893;28;20181;-61
2023/09/25 11:25:54;;;;;;;2.55;1.80;;;21.40;99.90;;;;;;4977650;28;20205;-61
2023/09/25 11:28:24;;;;;;;2.33;1.75;;;21.40;99.90;;;;;;4976617;28;20211;-61
2023/09/25 11:30:50;;;;;;;3.00;1.85;;;21.40;99.90;;;;;;4978069;28;20644;-62
2023/09/25 11:33:21;;;;;;;2.67;2.13;;;21.40;99.90;;;;;;4977695;28;20669;-61
2023/09/25 11:35:52;;;;;;;1.95;1.75;;;21.50;99.90;;;;;;4977769;28;20527;-61
2023/09/25 11:38:23;;;;;;;2.47;1.92;;;21.60;99.90;;;;;;4977674;28;20185;-63
2023/09/25 11:40:50;;;;;;;3.65;2.17;;;21.60;99.90;;;;;;4977439;28;20157;-62
2023/09/25 11:43:16;;;;;;;4.40;2.00;;;21.70;99.90;;;;;;4977894;28;20189;-62
2023/09/25 11:45:42;;;;;;;7.35;2.10;;;21.90;99.90;;;;;;4978050;28;20185;-62
2023/09/25 11:48:09;;;;;;;2.45;2.00;;;22.00;99.90;;;;;;4976182;28;20181;-62
2023/09/25 11:50:35;;;;;;;4.00;1.90;;;22.00;99.90;;;;;;4977470;28;20630;-61
2023/09/25 11:53:01;;;;;;;3.22;2.20;;;21.90;99.90;;;;;;4977310;28;20255;-61
2023/09/25 11:55:28;;;;;;;4.80;2.22;;;21.90;99.90;;;;;;4977361;28;20203;-63
2023/09/25 11:57:54;;;;;;;2.63;1.95;;;21.90;99.90;;;;;;4977310;28;20637;-62
2023/09/25 12:00:22;;;;;;;1.70;1.60;;;21.80;99.90;;;;;;4977298;28;20192;-62
2023/09/25 12:02:49;;;;;;;1.95;1.77;;;21.90;99.90;;;;;;4977230;28;20181;-62
2023/09/25 12:05:16;;;;;;;3.05;1.83;;;22.10;99.90;;;;;;4977158;28;20185;-62
2023/09/25 12:07:42;;;;;;;2.53;2.13;;;22.10;99.90;;;;;;4977157;28;20304;-63
2023/09/25 12:10:12;;;;;;;4.93;2.20;;;22.20;99.90;;;;;;4976804;28;20221;-61
2023/09/25 12:12:39;;;;;;;2.40;2.00;;;22.20;99.90;;;;;;4976980;28;20197;-62
2023/09/25 12:15:09;;;;;;;3.30;1.98;;;22.20;99.90;;;;;;4977041;28;20520;-63
2023/09/25 12:17:35;;;;;;;2.75;2.20;;;22.20;99.90;;;;;;4977505;28;20178;-62
2023/09/25 12:20:06;;;;;;;3.10;1.80;;;22.20;99.90;;;;;;4976839;28;20200;-62
2023/09/25 12:22:32;;;;;;;3.83;2.03;;;22.10;99.90;;;;;;4976969;28;20185;-63
2023/09/25 12:24:58;;;;;;;4.47;2.10;;;22.00;99.90;;;;;;4975985;28;20207;-62
2023/09/25 12:27:23;;;;;;;2.38;1.90;;;22.20;99.90;;;;;;4977309;28;20528;-62
2023/09/25 12:29:50;;;;;;;2.47;2.05;;;22.50;99.90;;;;;;4976630;28;20200;-62
2023/09/25 12:32:15;;;;;;;2.50;2.10;;;22.70;99.90;;;;;;4976843;28;20296;-62
2023/09/25 12:34:41;;;;;;;2.35;1.88;;;22.90;99.90;;;;;;4976894;28;20256;-63
2023/09/25 12:37:07;;;;;;;3.25;2.00;;;23.00;99.90;;;;;;4976591;28;20178;-63
2023/09/25 12:39:34;;;;;;;2.13;1.80;;;23.10;99.90;;;;;;4976685;28;20203;-62
2023/09/25 12:42:01;;;;;;;2.20;1.90;;;23.00;99.90;;;;;;4976314;28;20585;-63
2023/09/25 12:44:26;;;;;;;2.00;1.80;;;23.00;99.90;;;;;;4977025;28;20535;-63
2023/09/25 12:46:52;;;;;;;2.10;1.90;;;23.30;99.90;;;;;;4976607;28;20256;-63
2023/09/25 12:49:19;;;;;;;5.40;2.13;;;23.20;99.90;;;;;;4976319;28;20665;-63